sensor_id;sensor_type;location;lat;lon;timestamp;P1;durP1;ratioP1;P2;durP2;ratioP2
71238;SDS011;61342;51.442;7.370;2023-04-21T00:00:52;25.70;;;20.20;;
71238;SDS011;61342;51.442;7.370;2023-04-21T00:01:53;27.27;;;20.83;;
71238;SDS011;61342;51.442;7.370;2023-04-21T00:02:54;28.73;;;21.43;;
71238;SDS011;61342;51.442;7.370;2023-04-21T00:03:54;28.90;;;21.20;;
71238;SDS011;61342;51.442;7.370;2023-04-21T00:04:55;28.60;;;22.13;;
71238;SDS011;61342;51.442;7.370;2023-04-21T00:05:55;28.37;;;21.40;;
71238;SDS011;61342;51.442;7.370;2023-04-21T00:06:57;27.73;;;20.43;;
71238;SDS011;61342;51.442;7.370;2023-04-21T00:08:00;29.97;;;22.40;;
71238;SDS011;61342;51.442;7.370;2023-04-21T00:09:00;28.43;;;21.70;;
71238;SDS011;61342;51.442;7.370;2023-04-21T00:10:01;27.57;;;21.90;;
71238;SDS011;61342;51.442;7.370;2023-04-21T00:11:01;29.50;;;22.30;;
71238;SDS011;61342;51.442;7.370;2023-04-21T00:12:01;26.73;;;21.33;;
71238;SDS011;61342;51.442;7.370;2023-04-21T00:13:02;28.67;;;21.73;;
71238;SDS011;61342;51.442;7.370;2023-04-21T00:14:02;28.77;;;21.87;;
71238;SDS011;61342;51.442;7.370;2023-04-21T00:15:03;28.30;;;22.17;;
71238;SDS011;61342;51.442;7.370;2023-04-21T00:16:04;26.83;;;21.67;;
71238;SDS011;61342;51.442;7.370;2023-04-21T00:17:05;28.67;;;21.53;;
71238;SDS011;61342;51.442;7.370;2023-04-21T00:18:06;27.50;;;21.87;;
71238;SDS011;61342;51.442;7.370;2023-04-21T00:19:06;30.43;;;22.47;;
71238;SDS011;61342;51.442;7.370;2023-04-21T00:20:07;29.20;;;22.03;;
71238;SDS011;61342;51.442;7.370;2023-04-21T00:21:09;28.97;;;22.20;;
71238;SDS011;61342;51.442;7.370;2023-04-21T00:22:09;30.70;;;23.27;;
71238;SDS011;61342;51.442;7.370;2023-04-21T00:23:13;29.07;;;21.00;;
71238;SDS011;61342;51.442;7.370;2023-04-21T00:24:14;28.17;;;21.33;;
71238;SDS011;61342;51.442;7.370;2023-04-21T00:25:14;28.90;;;21.63;;
71238;SDS011;61342;51.442;7.370;2023-04-21T00:26:14;32.37;;;22.43;;
71238;SDS011;61342;51.442;7.370;2023-04-21T00:27:15;28.97;;;21.87;;
71238;SDS011;61342;51.442;7.370;2023-04-21T00:28:15;29.93;;;22.10;;
71238;SDS011;61342;51.442;7.370;2023-04-21T00:29:16;27.27;;;21.97;;
71238;SDS011;61342;51.442;7.370;2023-04-21T00:30:16;31.43;;;22.83;;
71238;SDS011;61342;51.442;7.370;2023-04-21T00:31:17;28.60;;;22.00;;
71238;SDS011;61342;51.442;7.370;2023-04-21T00:32:17;30.20;;;22.40;;
71238;SDS011;61342;51.442;7.370;2023-04-21T00:33:17;30.27;;;22.00;;
71238;SDS011;61342;51.442;7.370;2023-04-21T00:34:18;30.83;;;23.07;;
71238;SDS011;61342;51.442;7.370;2023-04-21T00:35:18;27.03;;;21.90;;
71238;SDS011;61342;51.442;7.370;2023-04-21T00:36:18;30.77;;;22.67;;
71238;SDS011;61342;51.442;7.370;2023-04-21T00:37:19;31.77;;;23.77;;
71238;SDS011;61342;51.442;7.370;2023-04-21T00:38:19;31.60;;;23.43;;
71238;SDS011;61342;51.442;7.370;2023-04-21T00:39:20;31.33;;;22.20;;
71238;SDS011;61342;51.442;7.370;2023-04-21T00:40:20;30.97;;;21.97;;
71238;SDS011;61342;51.442;7.370;2023-04-21T00:41:20;31.10;;;22.97;;
71238;SDS011;61342;51.442;7.370;2023-04-21T00:42:20;32.33;;;22.87;;
71238;SDS011;61342;51.442;7.370;2023-04-21T00:43:21;28.63;;;21.87;;
71238;SDS011;61342;51.442;7.370;2023-04-21T00:44:21;29.73;;;22.70;;
71238;SDS011;61342;51.442;7.370;2023-04-21T00:45:22;30.53;;;23.30;;
71238;SDS011;61342;51.442;7.370;2023-04-21T00:46:22;30.20;;;22.87;;
71238;SDS011;61342;51.442;7.370;2023-04-21T00:47:22;30.77;;;22.40;;
71238;SDS011;61342;51.442;7.370;2023-04-21T00:48:23;30.47;;;22.67;;
71238;SDS011;61342;51.442;7.370;2023-04-21T00:49:23;27.77;;;21.83;;
71238;SDS011;61342;51.442;7.370;2023-04-21T00:50:24;30.17;;;23.63;;
71238;SDS011;61342;51.442;7.370;2023-04-21T00:51:26;28.67;;;22.67;;
71238;SDS011;61342;51.442;7.370;2023-04-21T00:52:27;29.30;;;22.03;;
71238;SDS011;61342;51.442;7.370;2023-04-21T00:53:28;32.27;;;23.87;;
71238;SDS011;61342;51.442;7.370;2023-04-21T00:54:29;30.13;;;23.07;;
71238;SDS011;61342;51.442;7.370;2023-04-21T00:55:30;30.97;;;23.50;;
71238;SDS011;61342;51.442;7.370;2023-04-21T00:56:31;31.37;;;22.73;;
71238;SDS011;61342;51.442;7.370;2023-04-21T00:57:32;33.83;;;22.47;;
71238;SDS011;61342;51.442;7.370;2023-04-21T00:58:35;30.93;;;23.20;;
71238;SDS011;61342;51.442;7.370;2023-04-21T00:59:37;32.60;;;23.90;;
71238;SDS011;61342;51.442;7.370;2023-04-21T01:00:38;35.33;;;24.67;;
71238;SDS011;61342;51.442;7.370;2023-04-21T01:01:38;31.47;;;23.03;;
71238;SDS011;61342;51.442;7.370;2023-04-21T01:02:40;29.40;;;22.83;;
71238;SDS011;61342;51.442;7.370;2023-04-21T01:03:40;33.20;;;22.53;;
71238;SDS011;61342;51.442;7.370;2023-04-21T01:04:41;32.40;;;22.50;;
71238;SDS011;61342;51.442;7.370;2023-04-21T01:05:42;35.63;;;23.77;;
71238;SDS011;61342;51.442;7.370;2023-04-21T01:06:43;34.67;;;23.60;;
71238;SDS011;61342;51.442;7.370;2023-04-21T01:07:43;32.43;;;24.37;;
71238;SDS011;61342;51.442;7.370;2023-04-21T01:08:44;33.47;;;24.00;;
71238;SDS011;61342;51.442;7.370;2023-04-21T01:09:45;31.03;;;23.47;;
71238;SDS011;61342;51.442;7.370;2023-04-21T01:10:45;31.60;;;24.27;;
71238;SDS011;61342;51.442;7.370;2023-04-21T01:12:02;31.07;;;23.83;;
71238;SDS011;61342;51.442;7.370;2023-04-21T01:13:04;32.17;;;23.67;;
71238;SDS011;61342;51.442;7.370;2023-04-21T01:14:04;30.87;;;22.50;;
71238;SDS011;61342;51.442;7.370;2023-04-21T01:15:05;32.03;;;23.23;;
71238;SDS011;61342;51.442;7.370;2023-04-21T01:16:06;33.27;;;24.23;;
71238;SDS011;61342;51.442;7.370;2023-04-21T01:17:07;31.83;;;23.63;;
71238;SDS011;61342;51.442;7.370;2023-04-21T01:18:07;35.90;;;24.90;;
71238;SDS011;61342;51.442;7.370;2023-04-21T01:19:08;34.43;;;25.30;;
71238;SDS011;61342;51.442;7.370;2023-04-21T01:20:09;30.93;;;24.13;;
71238;SDS011;61342;51.442;7.370;2023-04-21T01:21:11;33.57;;;24.03;;
71238;SDS011;61342;51.442;7.370;2023-04-21T01:22:12;32.27;;;23.37;;
71238;SDS011;61342;51.442;7.370;2023-04-21T01:23:14;31.23;;;24.30;;
71238;SDS011;61342;51.442;7.370;2023-04-21T01:24:16;32.43;;;25.57;;
71238;SDS011;61342;51.442;7.370;2023-04-21T01:25:16;31.67;;;25.00;;
71238;SDS011;61342;51.442;7.370;2023-04-21T01:26:18;32.70;;;24.60;;
71238;SDS011;61342;51.442;7.370;2023-04-21T01:27:20;34.33;;;24.87;;
71238;SDS011;61342;51.442;7.370;2023-04-21T01:28:24;31.30;;;23.77;;
71238;SDS011;61342;51.442;7.370;2023-04-21T01:29:25;30.87;;;24.37;;
71238;SDS011;61342;51.442;7.370;2023-04-21T01:30:25;34.20;;;24.33;;
71238;SDS011;61342;51.442;7.370;2023-04-21T01:31:25;31.57;;;24.47;;
71238;SDS011;61342;51.442;7.370;2023-04-21T01:32:27;33.40;;;24.60;;
71238;SDS011;61342;51.442;7.370;2023-04-21T01:33:29;33.33;;;25.27;;
71238;SDS011;61342;51.442;7.370;2023-04-21T01:34:29;32.07;;;23.87;;
71238;SDS011;61342;51.442;7.370;2023-04-21T01:35:30;35.50;;;26.03;;
71238;SDS011;61342;51.442;7.370;2023-04-21T01:36:30;29.97;;;24.03;;
71238;SDS011;61342;51.442;7.370;2023-04-21T01:37:31;33.90;;;24.97;;
71238;SDS011;61342;51.442;7.370;2023-04-21T01:38:32;32.63;;;25.20;;
71238;SDS011;61342;51.442;7.370;2023-04-21T01:39:32;32.97;;;24.73;;
71238;SDS011;61342;51.442;7.370;2023-04-21T01:40:33;35.33;;;24.93;;
71238;SDS011;61342;51.442;7.370;2023-04-21T01:41:33;31.00;;;23.67;;
71238;SDS011;61342;51.442;7.370;2023-04-21T01:42:34;33.53;;;23.73;;
71238;SDS011;61342;51.442;7.370;2023-04-21T01:43:37;36.77;;;26.33;;
71238;SDS011;61342;51.442;7.370;2023-04-21T01:44:38;33.63;;;25.30;;
71238;SDS011;61342;51.442;7.370;2023-04-21T01:45:39;37.00;;;25.73;;
71238;SDS011;61342;51.442;7.370;2023-04-21T01:46:39;28.63;;;22.97;;
71238;SDS011;61342;51.442;7.370;2023-04-21T01:47:40;30.77;;;24.13;;
71238;SDS011;61342;51.442;7.370;2023-04-21T01:48:40;33.97;;;25.07;;
71238;SDS011;61342;51.442;7.370;2023-04-21T01:49:40;31.93;;;25.10;;
71238;SDS011;61342;51.442;7.370;2023-04-21T01:50:41;34.23;;;25.13;;
71238;SDS011;61342;51.442;7.370;2023-04-21T01:51:41;34.80;;;25.00;;
71238;SDS011;61342;51.442;7.370;2023-04-21T01:52:41;34.60;;;25.37;;
71238;SDS011;61342;51.442;7.370;2023-04-21T01:53:42;32.67;;;24.17;;
71238;SDS011;61342;51.442;7.370;2023-04-21T01:54:42;30.73;;;24.30;;
71238;SDS011;61342;51.442;7.370;2023-04-21T01:55:42;28.07;;;23.27;;
71238;SDS011;61342;51.442;7.370;2023-04-21T01:56:42;32.57;;;23.77;;
71238;SDS011;61342;51.442;7.370;2023-04-21T01:57:43;30.63;;;24.10;;
71238;SDS011;61342;51.442;7.370;2023-04-21T01:58:43;31.20;;;23.77;;
71238;SDS011;61342;51.442;7.370;2023-04-21T01:59:44;31.13;;;23.30;;
71238;SDS011;61342;51.442;7.370;2023-04-21T02:00:44;32.37;;;24.07;;
71238;SDS011;61342;51.442;7.370;2023-04-21T02:01:44;30.30;;;23.00;;
71238;SDS011;61342;51.442;7.370;2023-04-21T02:02:45;32.00;;;24.73;;
71238;SDS011;61342;51.442;7.370;2023-04-21T02:03:45;30.67;;;24.13;;
71238;SDS011;61342;51.442;7.370;2023-04-21T02:04:46;32.40;;;24.43;;
71238;SDS011;61342;51.442;7.370;2023-04-21T02:05:46;31.27;;;22.97;;
71238;SDS011;61342;51.442;7.370;2023-04-21T02:06:46;30.03;;;23.30;;
71238;SDS011;61342;51.442;7.370;2023-04-21T02:07:47;28.90;;;23.43;;
71238;SDS011;61342;51.442;7.370;2023-04-21T02:08:47;31.57;;;23.50;;
71238;SDS011;61342;51.442;7.370;2023-04-21T02:09:47;30.03;;;23.37;;
71238;SDS011;61342;51.442;7.370;2023-04-21T02:10:48;34.57;;;24.23;;
71238;SDS011;61342;51.442;7.370;2023-04-21T02:11:48;33.60;;;24.60;;
71238;SDS011;61342;51.442;7.370;2023-04-21T02:12:48;30.70;;;23.30;;
71238;SDS011;61342;51.442;7.370;2023-04-21T02:13:49;32.67;;;23.27;;
71238;SDS011;61342;51.442;7.370;2023-04-21T02:14:50;32.80;;;24.03;;
71238;SDS011;61342;51.442;7.370;2023-04-21T02:15:50;32.17;;;24.17;;
71238;SDS011;61342;51.442;7.370;2023-04-21T02:16:51;34.10;;;23.40;;
71238;SDS011;61342;51.442;7.370;2023-04-21T02:17:51;32.63;;;24.37;;
71238;SDS011;61342;51.442;7.370;2023-04-21T02:18:53;32.23;;;24.13;;
71238;SDS011;61342;51.442;7.370;2023-04-21T02:19:55;30.30;;;23.03;;
71238;SDS011;61342;51.442;7.370;2023-04-21T02:20:56;33.60;;;24.47;;
71238;SDS011;61342;51.442;7.370;2023-04-21T02:21:56;31.57;;;23.57;;
71238;SDS011;61342;51.442;7.370;2023-04-21T02:22:56;29.63;;;22.47;;
71238;SDS011;61342;51.442;7.370;2023-04-21T02:23:57;31.97;;;24.07;;
71238;SDS011;61342;51.442;7.370;2023-04-21T02:24:57;30.70;;;23.43;;
71238;SDS011;61342;51.442;7.370;2023-04-21T02:25:58;30.70;;;23.53;;
71238;SDS011;61342;51.442;7.370;2023-04-21T02:26:58;31.60;;;24.03;;
71238;SDS011;61342;51.442;7.370;2023-04-21T02:27:58;29.27;;;24.33;;
71238;SDS011;61342;51.442;7.370;2023-04-21T02:28:59;30.83;;;23.13;;
71238;SDS011;61342;51.442;7.370;2023-04-21T02:29:59;31.80;;;24.47;;
71238;SDS011;61342;51.442;7.370;2023-04-21T02:31:00;31.43;;;24.53;;
71238;SDS011;61342;51.442;7.370;2023-04-21T02:32:00;33.57;;;24.90;;
71238;SDS011;61342;51.442;7.370;2023-04-21T02:33:00;33.40;;;23.70;;
71238;SDS011;61342;51.442;7.370;2023-04-21T02:34:01;30.70;;;23.77;;
71238;SDS011;61342;51.442;7.370;2023-04-21T02:35:01;31.63;;;22.97;;
71238;SDS011;61342;51.442;7.370;2023-04-21T02:36:02;29.87;;;23.40;;
71238;SDS011;61342;51.442;7.370;2023-04-21T02:37:02;31.00;;;24.40;;
71238;SDS011;61342;51.442;7.370;2023-04-21T02:38:03;31.47;;;24.07;;
71238;SDS011;61342;51.442;7.370;2023-04-21T02:39:06;32.13;;;24.23;;
71238;SDS011;61342;51.442;7.370;2023-04-21T02:40:06;31.03;;;23.37;;
71238;SDS011;61342;51.442;7.370;2023-04-21T02:41:08;32.53;;;23.80;;
71238;SDS011;61342;51.442;7.370;2023-04-21T02:42:08;33.30;;;24.30;;
71238;SDS011;61342;51.442;7.370;2023-04-21T02:43:08;30.20;;;23.87;;
71238;SDS011;61342;51.442;7.370;2023-04-21T02:44:09;32.30;;;23.73;;
71238;SDS011;61342;51.442;7.370;2023-04-21T02:45:09;34.07;;;24.17;;
71238;SDS011;61342;51.442;7.370;2023-04-21T02:46:10;30.37;;;23.70;;
71238;SDS011;61342;51.442;7.370;2023-04-21T02:47:10;33.07;;;24.57;;
71238;SDS011;61342;51.442;7.370;2023-04-21T02:48:10;33.60;;;24.73;;
71238;SDS011;61342;51.442;7.370;2023-04-21T02:49:11;31.87;;;24.87;;
71238;SDS011;61342;51.442;7.370;2023-04-21T02:50:12;36.63;;;25.77;;
71238;SDS011;61342;51.442;7.370;2023-04-21T02:51:13;34.23;;;25.10;;
71238;SDS011;61342;51.442;7.370;2023-04-21T02:52:14;41.87;;;25.50;;
71238;SDS011;61342;51.442;7.370;2023-04-21T02:53:15;34.80;;;25.30;;
71238;SDS011;61342;51.442;7.370;2023-04-21T02:54:15;32.90;;;25.07;;
71238;SDS011;61342;51.442;7.370;2023-04-21T02:55:16;34.10;;;25.03;;
71238;SDS011;61342;51.442;7.370;2023-04-21T02:56:16;32.30;;;24.80;;
71238;SDS011;61342;51.442;7.370;2023-04-21T02:57:16;35.10;;;25.30;;
71238;SDS011;61342;51.442;7.370;2023-04-21T02:58:17;33.20;;;25.40;;
71238;SDS011;61342;51.442;7.370;2023-04-21T02:59:17;31.73;;;25.90;;
71238;SDS011;61342;51.442;7.370;2023-04-21T03:00:17;35.40;;;26.17;;
71238;SDS011;61342;51.442;7.370;2023-04-21T03:01:19;34.73;;;24.23;;
71238;SDS011;61342;51.442;7.370;2023-04-21T03:02:19;34.77;;;26.20;;
71238;SDS011;61342;51.442;7.370;2023-04-21T03:03:20;35.27;;;25.37;;
71238;SDS011;61342;51.442;7.370;2023-04-21T03:04:20;33.63;;;25.90;;
71238;SDS011;61342;51.442;7.370;2023-04-21T03:05:23;32.73;;;24.30;;
71238;SDS011;61342;51.442;7.370;2023-04-21T03:06:23;32.60;;;24.63;;
71238;SDS011;61342;51.442;7.370;2023-04-21T03:07:24;33.33;;;24.57;;
71238;SDS011;61342;51.442;7.370;2023-04-21T03:08:24;34.33;;;25.23;;
71238;SDS011;61342;51.442;7.370;2023-04-21T03:09:25;34.27;;;25.30;;
71238;SDS011;61342;51.442;7.370;2023-04-21T03:10:25;33.23;;;24.77;;
71238;SDS011;61342;51.442;7.370;2023-04-21T03:11:25;35.73;;;26.07;;
71238;SDS011;61342;51.442;7.370;2023-04-21T03:12:26;33.20;;;24.67;;
71238;SDS011;61342;51.442;7.370;2023-04-21T03:13:26;34.43;;;25.13;;
71238;SDS011;61342;51.442;7.370;2023-04-21T03:14:26;32.97;;;25.50;;
71238;SDS011;61342;51.442;7.370;2023-04-21T03:15:27;35.10;;;25.23;;
71238;SDS011;61342;51.442;7.370;2023-04-21T03:16:27;35.27;;;25.60;;
71238;SDS011;61342;51.442;7.370;2023-04-21T03:17:28;34.03;;;26.30;;
71238;SDS011;61342;51.442;7.370;2023-04-21T03:18:28;35.80;;;25.60;;
71238;SDS011;61342;51.442;7.370;2023-04-21T03:19:29;34.83;;;25.20;;
71238;SDS011;61342;51.442;7.370;2023-04-21T03:20:29;31.90;;;25.80;;
71238;SDS011;61342;51.442;7.370;2023-04-21T03:21:29;36.63;;;27.33;;
71238;SDS011;61342;51.442;7.370;2023-04-21T03:22:30;35.57;;;27.03;;
71238;SDS011;61342;51.442;7.370;2023-04-21T03:23:31;35.00;;;26.20;;
71238;SDS011;61342;51.442;7.370;2023-04-21T03:24:31;34.10;;;26.07;;
71238;SDS011;61342;51.442;7.370;2023-04-21T03:25:31;35.63;;;26.33;;
71238;SDS011;61342;51.442;7.370;2023-04-21T03:26:32;32.40;;;26.80;;
71238;SDS011;61342;51.442;7.370;2023-04-21T03:27:33;31.80;;;24.47;;
71238;SDS011;61342;51.442;7.370;2023-04-21T03:28:33;34.07;;;25.87;;
71238;SDS011;61342;51.442;7.370;2023-04-21T03:29:34;34.23;;;25.20;;
71238;SDS011;61342;51.442;7.370;2023-04-21T03:30:35;37.03;;;27.00;;
71238;SDS011;61342;51.442;7.370;2023-04-21T03:31:35;33.90;;;27.27;;
71238;SDS011;61342;51.442;7.370;2023-04-21T03:32:36;37.00;;;26.53;;
71238;SDS011;61342;51.442;7.370;2023-04-21T03:33:36;36.20;;;26.70;;
71238;SDS011;61342;51.442;7.370;2023-04-21T03:34:36;34.93;;;26.57;;
71238;SDS011;61342;51.442;7.370;2023-04-21T03:35:37;34.60;;;26.27;;
71238;SDS011;61342;51.442;7.370;2023-04-21T03:36:37;37.07;;;26.73;;
71238;SDS011;61342;51.442;7.370;2023-04-21T03:37:37;38.33;;;28.27;;
71238;SDS011;61342;51.442;7.370;2023-04-21T03:38:38;36.40;;;27.00;;
71238;SDS011;61342;51.442;7.370;2023-04-21T03:39:38;36.30;;;27.43;;
71238;SDS011;61342;51.442;7.370;2023-04-21T03:40:38;36.07;;;26.90;;
71238;SDS011;61342;51.442;7.370;2023-04-21T03:41:39;34.63;;;26.10;;
71238;SDS011;61342;51.442;7.370;2023-04-21T03:42:39;34.30;;;26.63;;
71238;SDS011;61342;51.442;7.370;2023-04-21T03:43:40;36.37;;;26.17;;
71238;SDS011;61342;51.442;7.370;2023-04-21T03:44:40;32.70;;;25.13;;
71238;SDS011;61342;51.442;7.370;2023-04-21T03:45:41;33.00;;;25.93;;
71238;SDS011;61342;51.442;7.370;2023-04-21T03:46:41;36.40;;;26.60;;
71238;SDS011;61342;51.442;7.370;2023-04-21T03:47:41;35.53;;;27.07;;
71238;SDS011;61342;51.442;7.370;2023-04-21T03:48:42;35.17;;;26.73;;
71238;SDS011;61342;51.442;7.370;2023-04-21T03:49:42;37.23;;;26.63;;
71238;SDS011;61342;51.442;7.370;2023-04-21T03:50:42;36.47;;;27.67;;
71238;SDS011;61342;51.442;7.370;2023-04-21T03:51:43;38.67;;;27.73;;
71238;SDS011;61342;51.442;7.370;2023-04-21T03:52:43;36.67;;;27.07;;
71238;SDS011;61342;51.442;7.370;2023-04-21T03:53:43;36.33;;;26.50;;
71238;SDS011;61342;51.442;7.370;2023-04-21T03:54:44;34.83;;;26.37;;
71238;SDS011;61342;51.442;7.370;2023-04-21T03:55:44;34.63;;;26.83;;
71238;SDS011;61342;51.442;7.370;2023-04-21T03:56:47;35.43;;;27.23;;
71238;SDS011;61342;51.442;7.370;2023-04-21T03:57:48;33.47;;;25.83;;
71238;SDS011;61342;51.442;7.370;2023-04-21T03:58:48;33.47;;;25.90;;
71238;SDS011;61342;51.442;7.370;2023-04-21T03:59:48;34.67;;;25.90;;
71238;SDS011;61342;51.442;7.370;2023-04-21T04:00:49;35.83;;;26.50;;
71238;SDS011;61342;51.442;7.370;2023-04-21T04:01:49;34.70;;;26.70;;
71238;SDS011;61342;51.442;7.370;2023-04-21T04:02:50;38.73;;;27.33;;
71238;SDS011;61342;51.442;7.370;2023-04-21T04:03:50;36.53;;;26.27;;
71238;SDS011;61342;51.442;7.370;2023-04-21T04:04:50;38.90;;;27.43;;
71238;SDS011;61342;51.442;7.370;2023-04-21T04:05:51;35.73;;;27.47;;
71238;SDS011;61342;51.442;7.370;2023-04-21T04:06:51;34.60;;;25.50;;
71238;SDS011;61342;51.442;7.370;2023-04-21T04:07:51;37.67;;;26.83;;
71238;SDS011;61342;51.442;7.370;2023-04-21T04:08:52;35.60;;;25.93;;
71238;SDS011;61342;51.442;7.370;2023-04-21T04:09:52;36.93;;;27.03;;
71238;SDS011;61342;51.442;7.370;2023-04-21T04:10:53;34.30;;;26.57;;
71238;SDS011;61342;51.442;7.370;2023-04-21T04:11:53;33.73;;;26.20;;
71238;SDS011;61342;51.442;7.370;2023-04-21T04:12:54;33.60;;;25.50;;
71238;SDS011;61342;51.442;7.370;2023-04-21T04:13:54;32.07;;;25.07;;
71238;SDS011;61342;51.442;7.370;2023-04-21T04:14:55;35.10;;;26.17;;
71238;SDS011;61342;51.442;7.370;2023-04-21T04:15:56;35.57;;;25.97;;
71238;SDS011;61342;51.442;7.370;2023-04-21T04:16:57;36.17;;;26.60;;
71238;SDS011;61342;51.442;7.370;2023-04-21T04:17:58;34.90;;;26.90;;
71238;SDS011;61342;51.442;7.370;2023-04-21T04:18:59;37.50;;;27.67;;
71238;SDS011;61342;51.442;7.370;2023-04-21T04:19:59;37.33;;;27.30;;
71238;SDS011;61342;51.442;7.370;2023-04-21T04:21:04;37.83;;;27.40;;
71238;SDS011;61342;51.442;7.370;2023-04-21T04:22:06;40.40;;;28.43;;
71238;SDS011;61342;51.442;7.370;2023-04-21T04:23:06;37.83;;;28.03;;
71238;SDS011;61342;51.442;7.370;2023-04-21T04:24:07;36.43;;;27.60;;
71238;SDS011;61342;51.442;7.370;2023-04-21T04:25:10;36.33;;;27.80;;
71238;SDS011;61342;51.442;7.370;2023-04-21T04:26:11;34.77;;;27.17;;
71238;SDS011;61342;51.442;7.370;2023-04-21T04:27:12;37.23;;;27.73;;
71238;SDS011;61342;51.442;7.370;2023-04-21T04:28:15;43.70;;;31.37;;
71238;SDS011;61342;51.442;7.370;2023-04-21T04:29:16;90.03;;;54.03;;
71238;SDS011;61342;51.442;7.370;2023-04-21T04:30:16;79.30;;;50.70;;
71238;SDS011;61342;51.442;7.370;2023-04-21T04:31:16;56.73;;;38.17;;
71238;SDS011;61342;51.442;7.370;2023-04-21T04:32:17;55.47;;;37.50;;
71238;SDS011;61342;51.442;7.370;2023-04-21T04:33:18;47.90;;;32.30;;
71238;SDS011;61342;51.442;7.370;2023-04-21T04:34:18;39.73;;;30.23;;
71238;SDS011;61342;51.442;7.370;2023-04-21T04:35:18;38.63;;;29.13;;
71238;SDS011;61342;51.442;7.370;2023-04-21T04:36:19;39.80;;;28.70;;
71238;SDS011;61342;51.442;7.370;2023-04-21T04:37:19;39.87;;;29.30;;
71238;SDS011;61342;51.442;7.370;2023-04-21T04:38:20;40.60;;;29.03;;
71238;SDS011;61342;51.442;7.370;2023-04-21T04:39:22;40.50;;;30.47;;
71238;SDS011;61342;51.442;7.370;2023-04-21T04:40:22;39.03;;;30.03;;
71238;SDS011;61342;51.442;7.370;2023-04-21T04:41:22;40.27;;;29.40;;
71238;SDS011;61342;51.442;7.370;2023-04-21T04:42:23;40.07;;;30.53;;
71238;SDS011;61342;51.442;7.370;2023-04-21T04:43:24;40.70;;;29.93;;
71238;SDS011;61342;51.442;7.370;2023-04-21T04:44:24;40.13;;;29.73;;
71238;SDS011;61342;51.442;7.370;2023-04-21T04:45:25;44.57;;;31.33;;
71238;SDS011;61342;51.442;7.370;2023-04-21T04:46:27;69.17;;;47.00;;
71238;SDS011;61342;51.442;7.370;2023-04-21T04:47:27;50.40;;;36.33;;
71238;SDS011;61342;51.442;7.370;2023-04-21T04:48:28;44.53;;;32.87;;
71238;SDS011;61342;51.442;7.370;2023-04-21T04:49:29;44.13;;;31.47;;
71238;SDS011;61342;51.442;7.370;2023-04-21T04:50:29;46.20;;;32.20;;
71238;SDS011;61342;51.442;7.370;2023-04-21T04:51:29;47.70;;;33.00;;
71238;SDS011;61342;51.442;7.370;2023-04-21T04:52:31;40.00;;;29.50;;
71238;SDS011;61342;51.442;7.370;2023-04-21T04:53:31;42.80;;;30.57;;
71238;SDS011;61342;51.442;7.370;2023-04-21T04:54:32;41.57;;;30.10;;
71238;SDS011;61342;51.442;7.370;2023-04-21T04:55:32;39.13;;;29.50;;
71238;SDS011;61342;51.442;7.370;2023-04-21T04:56:33;39.80;;;29.13;;
71238;SDS011;61342;51.442;7.370;2023-04-21T04:57:33;43.63;;;29.40;;
71238;SDS011;61342;51.442;7.370;2023-04-21T04:58:33;43.97;;;30.00;;
71238;SDS011;61342;51.442;7.370;2023-04-21T04:59:33;38.07;;;30.20;;
71238;SDS011;61342;51.442;7.370;2023-04-21T05:00:35;41.73;;;30.20;;
71238;SDS011;61342;51.442;7.370;2023-04-21T05:01:36;40.63;;;29.20;;
71238;SDS011;61342;51.442;7.370;2023-04-21T05:02:37;39.20;;;30.77;;
71238;SDS011;61342;51.442;7.370;2023-04-21T05:03:37;38.83;;;28.90;;
71238;SDS011;61342;51.442;7.370;2023-04-21T05:04:38;38.57;;;28.83;;
71238;SDS011;61342;51.442;7.370;2023-04-21T05:05:38;40.63;;;30.67;;
71238;SDS011;61342;51.442;7.370;2023-04-21T05:06:38;41.93;;;29.60;;
71238;SDS011;61342;51.442;7.370;2023-04-21T05:07:39;40.73;;;30.30;;
71238;SDS011;61342;51.442;7.370;2023-04-21T05:08:39;46.23;;;31.37;;
71238;SDS011;61342;51.442;7.370;2023-04-21T05:09:40;39.87;;;29.07;;
71238;SDS011;61342;51.442;7.370;2023-04-21T05:10:40;43.00;;;29.50;;
71238;SDS011;61342;51.442;7.370;2023-04-21T05:11:41;41.67;;;29.80;;
71238;SDS011;61342;51.442;7.370;2023-04-21T05:12:41;39.43;;;29.83;;
71238;SDS011;61342;51.442;7.370;2023-04-21T05:13:41;40.47;;;30.40;;
71238;SDS011;61342;51.442;7.370;2023-04-21T05:14:42;41.80;;;30.03;;
71238;SDS011;61342;51.442;7.370;2023-04-21T05:15:42;42.60;;;31.13;;
71238;SDS011;61342;51.442;7.370;2023-04-21T05:16:42;43.20;;;31.77;;
71238;SDS011;61342;51.442;7.370;2023-04-21T05:17:43;43.20;;;30.97;;
71238;SDS011;61342;51.442;7.370;2023-04-21T05:18:43;42.67;;;31.97;;
71238;SDS011;61342;51.442;7.370;2023-04-21T05:19:43;44.97;;;31.53;;
71238;SDS011;61342;51.442;7.370;2023-04-21T05:20:44;42.07;;;30.37;;
71238;SDS011;61342;51.442;7.370;2023-04-21T05:21:44;41.03;;;31.40;;
71238;SDS011;61342;51.442;7.370;2023-04-21T05:22:44;41.97;;;29.53;;
71238;SDS011;61342;51.442;7.370;2023-04-21T05:23:45;44.17;;;31.30;;
71238;SDS011;61342;51.442;7.370;2023-04-21T05:24:45;41.97;;;32.20;;
71238;SDS011;61342;51.442;7.370;2023-04-21T05:25:46;43.00;;;31.63;;
71238;SDS011;61342;51.442;7.370;2023-04-21T05:26:46;44.77;;;31.33;;
71238;SDS011;61342;51.442;7.370;2023-04-21T05:27:46;43.03;;;31.90;;
71238;SDS011;61342;51.442;7.370;2023-04-21T05:28:47;44.60;;;31.87;;
71238;SDS011;61342;51.442;7.370;2023-04-21T05:29:48;42.17;;;31.40;;
71238;SDS011;61342;51.442;7.370;2023-04-21T05:30:48;41.83;;;30.80;;
71238;SDS011;61342;51.442;7.370;2023-04-21T05:31:48;43.47;;;32.10;;
71238;SDS011;61342;51.442;7.370;2023-04-21T05:32:49;45.97;;;30.73;;
71238;SDS011;61342;51.442;7.370;2023-04-21T05:33:49;40.80;;;30.70;;
71238;SDS011;61342;51.442;7.370;2023-04-21T05:34:50;40.30;;;29.77;;
71238;SDS011;61342;51.442;7.370;2023-04-21T05:35:50;43.07;;;30.37;;
71238;SDS011;61342;51.442;7.370;2023-04-21T05:36:51;39.53;;;29.57;;
71238;SDS011;61342;51.442;7.370;2023-04-21T05:37:51;40.53;;;31.23;;
71238;SDS011;61342;51.442;7.370;2023-04-21T05:38:51;41.10;;;29.70;;
71238;SDS011;61342;51.442;7.370;2023-04-21T05:39:52;40.50;;;29.40;;
71238;SDS011;61342;51.442;7.370;2023-04-21T05:40:53;41.97;;;31.20;;
71238;SDS011;61342;51.442;7.370;2023-04-21T05:41:54;40.77;;;30.40;;
71238;SDS011;61342;51.442;7.370;2023-04-21T05:42:55;41.57;;;31.23;;
71238;SDS011;61342;51.442;7.370;2023-04-21T05:43:55;44.80;;;30.80;;
71238;SDS011;61342;51.442;7.370;2023-04-21T05:44:56;42.37;;;31.33;;
71238;SDS011;61342;51.442;7.370;2023-04-21T05:45:57;42.37;;;30.43;;
71238;SDS011;61342;51.442;7.370;2023-04-21T05:46:57;41.80;;;30.83;;
71238;SDS011;61342;51.442;7.370;2023-04-21T05:47:57;39.33;;;30.43;;
71238;SDS011;61342;51.442;7.370;2023-04-21T05:48:57;41.27;;;30.40;;
71238;SDS011;61342;51.442;7.370;2023-04-21T05:49:58;45.33;;;31.20;;
71238;SDS011;61342;51.442;7.370;2023-04-21T05:51:08;43.97;;;31.43;;
71238;SDS011;61342;51.442;7.370;2023-04-21T05:52:12;42.27;;;31.03;;
71238;SDS011;61342;51.442;7.370;2023-04-21T05:53:12;40.67;;;29.27;;
71238;SDS011;61342;51.442;7.370;2023-04-21T05:54:13;46.70;;;31.70;;
71238;SDS011;61342;51.442;7.370;2023-04-21T05:55:13;42.30;;;32.30;;